sensor_id;sensor_type;location;lat;lon;timestamp;pressure;altitude;pressure_sealevel;temperature;humidity
67434;BME280;54305;47.950;6.572;2023-01-28T00:01:38;94640.63;;;-1.43;100.00
67434;BME280;54305;47.950;6.572;2023-01-28T00:04:03;94639.81;;;-1.43;100.00
67434;BME280;54305;47.950;6.572;2023-01-28T00:06:29;94637.00;;;-1.39;100.00
67434;BME280;54305;47.950;6.572;2023-01-28T00:08:54;94627.56;;;-1.37;100.00
67434;BME280;54305;47.950;6.572;2023-01-28T00:11:19;94628.47;;;-1.38;100.00
67434;BME280;54305;47.950;6.572;2023-01-28T00:13:49;94626.97;;;-1.42;100.00
67434;BME280;54305;47.950;6.572;2023-01-28T00:16:14;94621.69;;;-1.39;100.00
67434;BME280;54305;47.950;6.572;2023-01-28T00:18:39;94617.50;;;-1.40;100.00
67434;BME280;54305;47.950;6.572;2023-01-28T00:21:05;94623.66;;;-1.44;100.00
67434;BME280;54305;47.950;6.572;2023-01-28T00:23:32;94623.34;;;-1.38;100.00
67434;BME280;54305;47.950;6.572;2023-01-28T00:26:02;94619.69;;;-1.34;100.00
67434;BME280;54305;47.950;6.572;2023-01-28T00:28:27;94629.44;;;-1.40;100.00
67434;BME280;54305;47.950;6.572;2023-01-28T00:30:53;94629.59;;;-1.43;100.00
67434;BME280;54305;47.950;6.572;2023-01-28T00:33:18;94632.25;;;-1.45;100.00
67434;BME280;54305;47.950;6.572;2023-01-28T00:35:43;94629.59;;;-1.43;100.00
67434;BME280;54305;47.950;6.572;2023-01-28T00:38:09;94638.84;;;-1.41;100.00
67434;BME280;54305;47.950;6.572;2023-01-28T00:40:34;94633.66;;;-1.39;100.00
67434;BME280;54305;47.950;6.572;2023-01-28T00:43:00;94629.19;;;-1.36;100.00
67434;BME280;54305;47.950;6.572;2023-01-28T00:45:25;94629.91;;;-1.34;100.00
67434;BME280;54305;47.950;6.572;2023-01-28T00:47:50;94628.47;;;-1.38;100.00
67434;BME280;54305;47.950;6.572;2023-01-28T00:50:16;94623.16;;;-1.35;100.00
67434;BME280;54305;47.950;6.572;2023-01-28T00:52:41;94625.56;;;-1.32;99.97
67434;BME280;54305;47.950;6.572;2023-01-28T00:55:06;94632.72;;;-1.38;100.00
67434;BME280;54305;47.950;6.572;2023-01-28T00:57:32;94616.75;;;-1.42;100.00
67434;BME280;54305;47.950;6.572;2023-01-28T00:59:58;94617.56;;;-1.41;99.50
67434;BME280;54305;47.950;6.572;2023-01-28T01:02:23;94622.03;;;-1.45;99.31
67434;BME280;54305;47.950;6.572;2023-01-28T01:04:48;94609.94;;;-1.57;98.92
67434;BME280;54305;47.950;6.572;2023-01-28T01:07:23;94608.38;;;-1.59;99.00
67434;BME280;54305;47.950;6.572;2023-01-28T01:10:14;94618.25;;;-1.69;99.08
67434;BME280;54305;47.950;6.572;2023-01-28T01:12:40;94625.31;;;-1.74;100.00
67434;BME280;54305;47.950;6.572;2023-01-28T01:15:06;94618.72;;;-1.78;100.00
67434;BME280;54305;47.950;6.572;2023-01-28T01:17:41;94610.75;;;-1.72;99.89
67434;BME280;54305;47.950;6.572;2023-01-28T01:20:10;94605.91;;;-1.76;100.00
67434;BME280;54305;47.950;6.572;2023-01-28T01:22:36;94613.28;;;-1.72;99.79
67434;BME280;54305;47.950;6.572;2023-01-28T01:25:02;94623.19;;;-1.81;100.00
67434;BME280;54305;47.950;6.572;2023-01-28T01:27:28;94622.53;;;-1.85;100.00
67434;BME280;54305;47.950;6.572;2023-01-28T01:29:53;94642.94;;;-1.85;100.00
67434;BME280;54305;47.950;6.572;2023-01-28T01:32:18;94633.06;;;-1.91;100.00
67434;BME280;54305;47.950;6.572;2023-01-28T01:34:44;94644.09;;;-1.90;100.00
67434;BME280;54305;47.950;6.572;2023-01-28T01:37:09;94633.72;;;-1.87;100.00
67434;BME280;54305;47.950;6.572;2023-01-28T01:39:35;94638.75;;;-1.86;100.00
67434;BME280;54305;47.950;6.572;2023-01-28T01:42:01;94642.09;;;-1.85;100.00
67434;BME280;54305;47.950;6.572;2023-01-28T01:47:10;94658.06;;;-1.97;100.00
67434;BME280;54305;47.950;6.572;2023-01-28T01:49:35;94655.59;;;-1.99;100.00
67434;BME280;54305;47.950;6.572;2023-01-28T01:52:02;94653.63;;;-1.94;100.00
67434;BME280;54305;47.950;6.572;2023-01-28T01:54:31;94653.03;;;-1.99;100.00
67434;BME280;54305;47.950;6.572;2023-01-28T01:56:56;94650.81;;;-2.05;100.00
67434;BME280;54305;47.950;6.572;2023-01-28T01:59:24;94659.53;;;-2.09;100.00
67434;BME280;54305;47.950;6.572;2023-01-28T02:01:51;94646.84;;;-2.10;100.00
67434;BME280;54305;47.950;6.572;2023-01-28T02:04:25;94648.56;;;-2.11;100.00
67434;BME280;54305;47.950;6.572;2023-01-28T02:06:51;94646.84;;;-2.10;100.00
67434;BME280;54305;47.950;6.572;2023-01-28T02:09:29;94651.13;;;-2.11;100.00
67434;BME280;54305;47.950;6.572;2023-01-28T02:11:55;94649.16;;;-2.06;100.00
67434;BME280;54305;47.950;6.572;2023-01-28T02:14:23;94643.56;;;-1.97;100.00
67434;BME280;54305;47.950;6.572;2023-01-28T02:16:50;94644.25;;;-1.93;100.00
67434;BME280;54305;47.950;6.572;2023-01-28T02:19:16;94647.41;;;-1.88;100.00
67434;BME280;54305;47.950;6.572;2023-01-28T02:24:45;94647.88;;;-1.82;100.00
67434;BME280;54305;47.950;6.572;2023-01-28T02:27:36;94647.72;;;-1.79;100.00
67434;BME280;54305;47.950;6.572;2023-01-28T02:30:15;94638.81;;;-1.72;100.00
67434;BME280;54305;47.950;6.572;2023-01-28T02:32:43;94636.75;;;-1.65;100.00
67434;BME280;54305;47.950;6.572;2023-01-28T02:35:14;94633.22;;;-1.63;100.00
67434;BME280;54305;47.950;6.572;2023-01-28T02:37:52;94629.09;;;-1.65;100.00
67434;BME280;54305;47.950;6.572;2023-01-28T02:40:20;94624.13;;;-1.67;100.00
67434;BME280;54305;47.950;6.572;2023-01-28T02:42:47;94633.41;;;-1.66;100.00
67434;BME280;54305;47.950;6.572;2023-01-28T02:45:30;94633.56;;;-1.69;100.00
67434;BME280;54305;47.950;6.572;2023-01-28T02:48:17;94623.84;;;-1.78;100.00
67434;BME280;54305;47.950;6.572;2023-01-28T02:50:57;94633.91;;;-1.75;100.00
67434;BME280;54305;47.950;6.572;2023-01-28T02:53:28;94630.59;;;-1.77;100.00
67434;BME280;54305;47.950;6.572;2023-01-28T03:01:52;94633.72;;;-1.87;100.00
67434;BME280;54305;47.950;6.572;2023-01-28T03:04:33;94629.75;;;-1.93;100.00
67434;BME280;54305;47.950;6.572;2023-01-28T03:07:01;94633.38;;;-1.97;100.00
67434;BME280;54305;47.950;6.572;2023-01-28T03:09:29;94636.31;;;-2.04;100.00
67434;BME280;54305;47.950;6.572;2023-01-28T03:11:59;94638.47;;;-2.12;100.00
67434;BME280;54305;47.950;6.572;2023-01-28T03:14:53;94636.78;;;-2.13;100.00
67434;BME280;54305;47.950;6.572;2023-01-28T03:17:40;94636.66;;;-2.10;100.00
67434;BME280;54305;47.950;6.572;2023-01-28T03:20:26;94645.44;;;-2.16;100.00
67434;BME280;54305;47.950;6.572;2023-01-28T03:23:13;94647.84;;;-2.13;100.00
67434;BME280;54305;47.950;6.572;2023-01-28T03:25:59;94652.94;;;-2.13;100.00
67434;BME280;54305;47.950;6.572;2023-01-28T03:28:44;94643.75;;;-2.00;100.00
67434;BME280;54305;47.950;6.572;2023-01-28T03:31:29;94653.28;;;-2.03;100.00
67434;BME280;54305;47.950;6.572;2023-01-28T03:34:12;94652.47;;;-2.04;100.00
67434;BME280;54305;47.950;6.572;2023-01-28T03:36:57;94657.56;;;-2.04;100.00
67434;BME280;54305;47.950;6.572;2023-01-28T03:39:25;94649.16;;;-2.06;100.00
67434;BME280;54305;47.950;6.572;2023-01-28T03:42:07;94651.13;;;-2.11;100.00
67434;BME280;54305;47.950;6.572;2023-01-28T03:44:32;94646.34;;;-2.17;100.00
67434;BME280;54305;47.950;6.572;2023-01-28T03:47:20;94658.50;;;-2.22;100.00
67434;BME280;54305;47.950;6.572;2023-01-28T03:49:47;94651.75;;;-2.23;100.00
67434;BME280;54305;47.950;6.572;2023-01-28T03:52:13;94648.31;;;-2.22;100.00
67434;BME280;54305;47.950;6.572;2023-01-28T03:54:39;94644.69;;;-2.18;100.00
67434;BME280;54305;47.950;6.572;2023-01-28T03:57:12;94651.63;;;-2.20;100.00
67434;BME280;54305;47.950;6.572;2023-01-28T03:59:38;94655.03;;;-2.21;100.00
67434;BME280;54305;47.950;6.572;2023-01-28T04:02:03;94653.25;;;-2.19;100.00
67434;BME280;54305;47.950;6.572;2023-01-28T04:04:29;94657.69;;;-2.22;100.00
67434;BME280;54305;47.950;6.572;2023-01-28T04:06:56;94658.56;;;-2.23;100.00
67434;BME280;54305;47.950;6.572;2023-01-28T04:09:22;94658.69;;;-2.25;100.00
67434;BME280;54305;47.950;6.572;2023-01-28T04:11:47;94668.88;;;-2.25;100.00
67434;BME280;54305;47.950;6.572;2023-01-28T04:14:14;94666.16;;;-2.22;100.00
67434;BME280;54305;47.950;6.572;2023-01-28T04:16:40;94667.38;;;-2.29;100.00
67434;BME280;54305;47.950;6.572;2023-01-28T04:19:06;94671.88;;;-2.34;100.00
67434;BME280;54305;47.950;6.572;2023-01-28T04:21:32;94671.78;;;-2.32;100.00
67434;BME280;54305;47.950;6.572;2023-01-28T04:23:57;94673.47;;;-2.31;100.00
67434;BME280;54305;47.950;6.572;2023-01-28T04:26:22;94670.72;;;-2.28;100.00
67434;BME280;54305;47.950;6.572;2023-01-28T04:28:47;94673.28;;;-2.28;100.00
67434;BME280;54305;47.950;6.572;2023-01-28T04:31:14;94675.75;;;-2.27;100.00
67434;BME280;54305;47.950;6.572;2023-01-28T04:33:40;94670.66;;;-2.27;100.00
67434;BME280;54305;47.950;6.572;2023-01-28T04:36:05;94681.91;;;-2.31;100.00
67434;BME280;54305;47.950;6.572;2023-01-28T04:38:30;94680.34;;;-2.33;100.00
67434;BME280;54305;47.950;6.572;2023-01-28T04:40:55;94688.84;;;-2.33;100.00
67434;BME280;54305;47.950;6.572;2023-01-28T04:43:21;94687.41;;;-2.38;100.00
67434;BME280;54305;47.950;6.572;2023-01-28T04:45:46;94690.03;;;-2.40;100.00
67434;BME280;54305;47.950;6.572;2023-01-28T04:48:12;94682.22;;;-2.37;100.00
67434;BME280;54305;47.950;6.572;2023-01-28T04:50:37;94687.34;;;-2.37;100.00
67434;BME280;54305;47.950;6.572;2023-01-28T04:53:03;94682.97;;;-2.35;100.00
67434;BME280;54305;47.950;6.572;2023-01-28T04:55:28;94693.16;;;-2.35;100.00
67434;BME280;54305;47.950;6.572;2023-01-28T04:57:53;94690.03;;;-2.40;100.00
67434;BME280;54305;47.950;6.572;2023-01-28T05:00:18;94688.38;;;-2.41;100.00
67434;BME280;54305;47.950;6.572;2023-01-28T05:02:44;94694.53;;;-2.45;100.00
67434;BME280;54305;47.950;6.572;2023-01-28T05:05:12;94694.69;;;-2.48;100.00
67434;BME280;54305;47.950;6.572;2023-01-28T05:07:37;94696.06;;;-2.58;100.00
67434;BME280;54305;47.950;6.572;2023-01-28T05:10:02;94692.81;;;-2.61;100.00
67434;BME280;54305;47.950;6.572;2023-01-28T05:12:28;94699.47;;;-2.59;100.00
67434;BME280;54305;47.950;6.572;2023-01-28T05:14:54;94693.44;;;-2.56;100.00
67434;BME280;54305;47.950;6.572;2023-01-28T05:17:19;94691.47;;;-2.51;100.00
67434;BME280;54305;47.950;6.572;2023-01-28T05:19:44;94696.94;;;-2.42;100.00
67434;BME280;54305;47.950;6.572;2023-01-28T05:22:10;94698.44;;;-2.38;100.00
67434;BME280;54305;47.950;6.572;2023-01-28T05:24:35;94703.22;;;-2.32;100.00
67434;BME280;54305;47.950;6.572;2023-01-28T05:27:00;94703.22;;;-2.32;100.00
67434;BME280;54305;47.950;6.572;2023-01-28T05:29:26;94712.00;;;-2.20;100.00
67434;BME280;54305;47.950;6.572;2023-01-28T05:31:51;94715.97;;;-2.15;100.00
67434;BME280;54305;47.950;6.572;2023-01-28T05:34:16;94712.00;;;-2.20;100.00
67434;BME280;54305;47.950;6.572;2023-01-28T05:36:41;94711.53;;;-2.11;100.00
67434;BME280;54305;47.950;6.572;2023-01-28T05:39:07;94714.59;;;-2.05;100.00
67434;BME280;54305;47.950;6.572;2023-01-28T05:41:32;94705.13;;;-2.03;100.00
67434;BME280;54305;47.950;6.572;2023-01-28T05:43:58;94713.69;;;-2.04;100.00
67434;BME280;54305;47.950;6.572;2023-01-28T05:46:23;94719.59;;;-2.03;100.00
67434;BME280;54305;47.950;6.572;2023-01-28T05:48:49;94715.47;;;-2.06;100.00
67434;BME280;54305;47.950;6.572;2023-01-28T05:51:15;94719.84;;;-2.08;100.00
67434;BME280;54305;47.950;6.572;2023-01-28T05:53:40;94719.13;;;-2.10;100.00
67434;BME280;54305;47.950;6.572;2023-01-28T05:56:05;94725.84;;;-2.09;100.00
67434;BME280;54305;47.950;6.572;2023-01-28T05:58:31;94723.38;;;-2.10;100.00
67434;BME280;54305;47.950;6.572;2023-01-28T06:00:56;94725.09;;;-2.11;100.00
67434;BME280;54305;47.950;6.572;2023-01-28T06:03:21;94725.69;;;-2.06;100.00
67434;BME280;54305;47.950;6.572;2023-01-28T06:05:47;94724.56;;;-2.00;100.00
67434;BME280;54305;47.950;6.572;2023-01-28T06:08:12;94733.06;;;-2.00;100.00
67434;BME280;54305;47.950;6.572;2023-01-28T06:10:37;94734.69;;;-1.99;100.00
67434;BME280;54305;47.950;6.572;2023-01-28T06:13:03;94725.91;;;-1.93;100.00
67434;BME280;54305;47.950;6.572;2023-01-28T06:15:28;94738.75;;;-1.95;100.00
67434;BME280;54305;47.950;6.572;2023-01-28T06:17:53;94740.53;;;-1.97;100.00
67434;BME280;54305;47.950;6.572;2023-01-28T06:20:18;94743.84;;;-1.95;100.00
67434;BME280;54305;47.950;6.572;2023-01-28T06:22:44;94756.59;;;-1.95;100.00
67434;BME280;54305;47.950;6.572;2023-01-28T06:25:09;94754.06;;;-1.95;100.00
67434;BME280;54305;47.950;6.572;2023-01-28T06:27:34;94747.06;;;-1.91;100.00
67434;BME280;54305;47.950;6.572;2023-01-28T06:30:00;94758.00;;;-1.89;100.00
67434;BME280;54305;47.950;6.572;2023-01-28T06:32:25;94761.38;;;-1.89;100.00
67434;BME280;54305;47.950;6.572;2023-01-28T06:34:51;94755.75;;;-1.78;100.00
67434;BME280;54305;47.950;6.572;2023-01-28T06:37:16;94765.84;;;-1.77;100.00
67434;BME280;54305;47.950;6.572;2023-01-28T06:39:41;94773.44;;;-1.75;100.00
67434;BME280;54305;47.950;6.572;2023-01-28T06:42:07;94775.00;;;-1.73;100.00
67434;BME280;54305;47.950;6.572;2023-01-28T06:44:32;94775.00;;;-1.73;100.00
67434;BME280;54305;47.950;6.572;2023-01-28T06:46:57;94780.97;;;-1.72;100.00
67434;BME280;54305;47.950;6.572;2023-01-28T06:49:22;94783.56;;;-1.74;100.00
67434;BME280;54305;47.950;6.572;2023-01-28T06:51:48;94778.16;;;-1.68;100.00
67434;BME280;54305;47.950;6.572;2023-01-28T06:54:13;94780.56;;;-1.65;100.00
67434;BME280;54305;47.950;6.572;2023-01-28T06:56:38;94781.28;;;-1.63;100.00
67434;BME280;54305;47.950;6.572;2023-01-28T06:59:04;94781.88;;;-1.58;100.00
67434;BME280;54305;47.950;6.572;2023-01-28T07:01:29;94780.25;;;-1.59;100.00
67434;BME280;54305;47.950;6.572;2023-01-28T07:03:55;94786.25;;;-1.60;100.00
67434;BME280;54305;47.950;6.572;2023-01-28T07:06:20;94792.84;;;-1.56;100.00
67434;BME280;54305;47.950;6.572;2023-01-28T07:08:46;94789.41;;;-1.55;100.00
67434;BME280;54305;47.950;6.572;2023-01-28T07:11:11;94794.50;;;-1.55;100.00
67434;BME280;54305;47.950;6.572;2023-01-28T07:13:36;94785.78;;;-1.51;100.00
67434;BME280;54305;47.950;6.572;2023-01-28T07:16:01;94795.81;;;-1.48;100.00
67434;BME280;54305;47.950;6.572;2023-01-28T07:18:28;94791.63;;;-1.49;100.00
67434;BME280;54305;47.950;6.572;2023-01-28T07:20:53;94788.16;;;-1.48;100.00
67434;BME280;54305;47.950;6.572;2023-01-28T07:23:18;94797.50;;;-1.47;100.00
67434;BME280;54305;47.950;6.572;2023-01-28T07:25:44;94799.13;;;-1.46;100.00
67434;BME280;54305;47.950;6.572;2023-01-28T07:28:09;94787.28;;;-1.47;100.00
67434;BME280;54305;47.950;6.572;2023-01-28T07:30:35;94795.69;;;-1.45;100.00
67434;BME280;54305;47.950;6.572;2023-01-28T07:33:00;94795.53;;;-1.42;100.00
67434;BME280;54305;47.950;6.572;2023-01-28T07:35:25;94799.66;;;-1.39;100.00
67434;BME280;54305;47.950;6.572;2023-01-28T07:37:57;94794.63;;;-1.41;100.00
67434;BME280;54305;47.950;6.572;2023-01-28T07:40:23;94802.94;;;-1.37;100.00
67434;BME280;54305;47.950;6.572;2023-01-28T07:42:49;94808.88;;;-1.37;100.00
67434;BME280;54305;47.950;6.572;2023-01-28T07:45:14;94803.31;;;-1.28;100.00
67434;BME280;54305;47.950;6.572;2023-01-28T07:47:39;94815.31;;;-1.30;100.00
67434;BME280;54305;47.950;6.572;2023-01-28T07:50:05;94815.16;;;-1.27;100.00
67434;BME280;54305;47.950;6.572;2023-01-28T07:52:30;94810.78;;;-1.25;100.00
67434;BME280;54305;47.950;6.572;2023-01-28T07:54:55;94817.25;;;-1.18;100.00
67434;BME280;54305;47.950;6.572;2023-01-28T07:57:21;94814.50;;;-1.15;100.00
67434;BME280;54305;47.950;6.572;2023-01-28T07:59:50;94818.97;;;-1.18;100.00
67434;BME280;54305;47.950;6.572;2023-01-28T08:02:16;94808.53;;;-1.14;100.00
67434;BME280;54305;47.950;6.572;2023-01-28T08:04:41;94807.28;;;-1.07;100.00
67434;BME280;54305;47.950;6.572;2023-01-28T08:07:07;94821.63;;;-1.04;100.00
67434;BME280;54305;47.950;6.572;2023-01-28T08:09:32;94817.34;;;-1.04;100.00
67434;BME280;54305;47.950;6.572;2023-01-28T08:11:58;94812.25;;;-1.04;100.00
67434;BME280;54305;47.950;6.572;2023-01-28T08:14:23;94813.69;;;-1.00;100.00
67434;BME280;54305;47.950;6.572;2023-01-28T08:16:49;94814.28;;;-0.95;100.00
67434;BME280;54305;47.950;6.572;2023-01-28T08:19:14;94815.84;;;-0.92;100.00
67434;BME280;54305;47.950;6.572;2023-01-28T08:21:41;94823.44;;;-0.91;100.00
67434;BME280;54305;47.950;6.572;2023-01-28T08:24:07;94817.41;;;-0.90;100.00
67434;BME280;54305;47.950;6.572;2023-01-28T08:26:32;94826.75;;;-0.89;100.00
67434;BME280;54305;47.950;6.572;2023-01-28T08:28:57;94829.69;;;-0.81;100.00
67434;BME280;54305;47.950;6.572;2023-01-28T08:31:23;94820.25;;;-0.79;100.00
67434;BME280;54305;47.950;6.572;2023-01-28T08:33:48;94818.19;;;-0.72;100.00
67434;BME280;54305;47.950;6.572;2023-01-28T08:36:13;94820.47;;;-0.68;100.00
67434;BME280;54305;47.950;6.572;2023-01-28T08:38:39;94828.97;;;-0.67;100.00
67434;BME280;54305;47.950;6.572;2023-01-28T08:41:04;94837.66;;;-0.70;100.00
67434;BME280;54305;47.950;6.572;2023-01-28T08:43:30;94835.09;;;-0.70;100.00
67434;BME280;54305;47.950;6.572;2023-01-28T08:45:55;94830.03;;;-0.71;100.00
67434;BME280;54305;47.950;6.572;2023-01-28T08:48:20;94842.56;;;-0.67;100.00
67434;BME280;54305;47.950;6.572;2023-01-28T08:50:46;94845.56;;;-0.59;100.00
67434;BME280;54305;47.950;6.572;2023-01-28T08:53:12;94844.91;;;-0.62;100.00
67434;BME280;54305;47.950;6.572;2023-01-28T08:55:38;94839.44;;;-0.56;100.00
67434;BME280;54305;47.950;6.572;2023-01-28T08:58:04;94845.41;;;-0.56;100.00
67434;BME280;54305;47.950;6.572;2023-01-28T09:00:29;94841.09;;;-0.55;100.00
67434;BME280;54305;47.950;6.572;2023-01-28T09:02:55;94841.94;;;-0.55;100.00
67434;BME280;54305;47.950;6.572;2023-01-28T09:05:23;94843.72;;;-0.57;100.00
67434;BME280;54305;47.950;6.572;2023-01-28T09:07:50;94857.09;;;-0.52;100.00
67434;BME280;54305;47.950;6.572;2023-01-28T09:10:16;94855.28;;;-0.50;100.00
67434;BME280;54305;47.950;6.572;2023-01-28T09:12:42;94854.94;;;-0.44;100.00
67434;BME280;54305;47.950;6.572;2023-01-28T09:15:08;94860.22;;;-0.47;100.00
67434;BME280;54305;47.950;6.572;2023-01-28T09:17:33;94863.53;;;-0.45;100.00
67434;BME280;54305;47.950;6.572;2023-01-28T09:19:58;94863.19;;;-0.39;100.00
67434;BME280;54305;47.950;6.572;2023-01-28T09:22:24;94863.84;;;-0.35;100.00
67434;BME280;54305;47.950;6.572;2023-01-28T09:24:49;94854.09;;;-0.29;100.00
67434;BME280;54305;47.950;6.572;2023-01-28T09:27:15;94854.69;;;-0.24;100.00
67434;BME280;54305;47.950;6.572;2023-01-28T09:29:40;94861.56;;;-0.10;100.00
67434;BME280;54305;47.950;6.572;2023-01-28T09:32:06;94867.69;;;-0.13;100.00
67434;BME280;54305;47.950;6.572;2023-01-28T09:34:31;94878.69;;;-0.11;100.00
67434;BME280;54305;47.950;6.572;2023-01-28T09:36:56;94869.16;;;-0.09;100.00
67434;BME280;54305;47.950;6.572;2023-01-28T09:39:22;94871.72;;;-0.09;100.00
67434;BME280;54305;47.950;6.572;2023-01-28T09:44:27;94871.56;;;0.10;100.00
67434;BME280;54305;47.950;6.572;2023-01-28T09:47:03;94878.13;;;0.14;100.00
67434;BME280;54305;47.950;6.572;2023-01-28T09:51:57;94872.97;;;0.29;100.00
67434;BME280;54305;47.950;6.572;2023-01-28T09:54:26;94881.59;;;0.43;100.00
67434;BME280;54305;47.950;6.572;2023-01-28T09:56:55;94875.03;;;0.52;99.41
67434;BME280;54305;47.950;6.572;2023-01-28T09:59:23;94876.63;;;0.69;98.68
67434;BME280;54305;47.950;6.572;2023-01-28T10:09:41;94863.69;;;1.27;91.48
67434;BME280;54305;47.950;6.572;2023-01-28T10:17:25;94857.41;;;1.73;88.83
67434;BME280;54305;47.950;6.572;2023-01-28T10:19:55;94854.19;;;1.96;87.78
67434;BME280;54305;47.950;6.572;2023-01-28T10:22:22;94858.00;;;2.42;86.30
67434;BME280;54305;47.950;6.572;2023-01-28T10:24:51;94856.50;;;2.77;85.25
67434;BME280;54305;47.950;6.572;2023-01-28T10:27:23;94851.91;;;3.79;81.82
67434;BME280;54305;47.950;6.572;2023-01-28T10:29:49;94838.75;;;4.18;78.43
67434;BME280;54305;47.950;6.572;2023-01-28T10:32:21;94845.84;;;4.72;75.31
67434;BME280;54305;47.950;6.572;2023-01-28T10:34:47;94840.88;;;5.48;73.04
67434;BME280;54305;47.950;6.572;2023-01-28T10:37:13;94839.56;;;5.86;69.50
67434;BME280;54305;47.950;6.572;2023-01-28T10:39:38;94833.66;;;6.38;67.88
67434;BME280;54305;47.950;6.572;2023-01-28T10:42:15;94841.44;;;6.79;67.51
67434;BME280;54305;47.950;6.572;2023-01-28T10:44:41;94832.78;;;6.69;65.04
67434;BME280;54305;47.950;6.572;2023-01-28T10:47:14;94831.91;;;6.27;67.28
67434;BME280;54305;47.950;6.572;2023-01-28T10:49:41;94834.78;;;5.60;67.82
67434;BME280;54305;47.950;6.572;2023-01-28T10:52:13;94824.22;;;4.97;70.20
67434;BME280;54305;47.950;6.572;2023-01-28T10:54:39;94831.97;;;4.86;71.67
67434;BME280;54305;47.950;6.572;2023-01-28T10:57:07;94827.16;;;4.47;72.42
67434;BME280;54305;47.950;6.572;2023-01-28T10:59:34;94827.66;;;4.17;74.27
67434;BME280;54305;47.950;6.572;2023-01-28T11:02:01;94837.19;;;4.04;76.65
67434;BME280;54305;47.950;6.572;2023-01-28T11:04:29;94840.16;;;3.87;74.76
67434;BME280;54305;47.950;6.572;2023-01-28T11:09:21;94843.78;;;3.85;76.01
67434;BME280;54305;47.950;6.572;2023-01-28T11:11:46;94850.16;;;3.56;77.61
67434;BME280;54305;47.950;6.572;2023-01-28T11:14:18;94844.34;;;3.29;79.58
67434;BME280;54305;47.950;6.572;2023-01-28T11:16:44;94840.56;;;3.22;80.46
67434;BME280;54305;47.950;6.572;2023-01-28T11:19:09;94842.41;;;3.07;80.09
67434;BME280;54305;47.950;6.572;2023-01-28T11:21:36;94849.44;;;2.93;78.67
67434;BME280;54305;47.950;6.572;2023-01-28T11:24:02;94851.69;;;2.85;81.22
67434;BME280;54305;47.950;6.572;2023-01-28T11:26:33;94849.09;;;2.60;81.39
67434;BME280;54305;47.950;6.572;2023-01-28T11:28:58;94849.19;;;2.71;79.34
67434;BME280;54305;47.950;6.572;2023-01-28T11:31:24;94848.69;;;2.66;80.52
67434;BME280;54305;47.950;6.572;2023-01-28T11:33:54;94845.91;;;2.94;80.29
67434;BME280;54305;47.950;6.572;2023-01-28T11:36:25;94846.94;;;3.04;78.35
67434;BME280;54305;47.950;6.572;2023-01-28T11:38:52;94838.50;;;3.02;75.59
67434;BME280;54305;47.950;6.572;2023-01-28T11:41:18;94841.69;;;2.68;75.17
67434;BME280;54305;47.950;6.572;2023-01-28T11:43:48;94839.41;;;3.62;73.23
67434;BME280;54305;47.950;6.572;2023-01-28T11:51:27;94829.38;;;4.97;65.89
67434;BME280;54305;47.950;6.572;2023-01-28T11:54:40;94830.84;;;4.66;67.08
67434;BME280;54305;47.950;6.572;2023-01-28T11:56:59;94839.06;;;4.37;68.11
67434;BME280;54305;47.950;6.572;2023-01-28T12:02:07;94824.38;;;6.04;60.22
67434;BME280;54305;47.950;6.572;2023-01-28T12:17:25;94833.31;;;4.57;67.48
67434;BME280;54305;47.950;6.572;2023-01-28T12:37:59;94827.03;;;5.38;67.98
67434;BME280;54305;47.950;6.572;2023-01-28T12:43:07;94818.22;;;6.68;60.79
67434;BME280;54305;47.950;6.572;2023-01-28T12:45:37;94837.56;;;6.53;61.36
67434;BME280;54305;47.950;6.572;2023-01-28T12:48:11;94827.94;;;7.26;59.54
67434;BME280;54305;47.950;6.572;2023-01-28T12:50:53;94829.41;;;6.89;59.35
67434;BME280;54305;47.950;6.572;2023-01-28T12:53:33;94842.06;;;6.51;62.19
67434;BME280;54305;47.950;6.572;2023-01-28T12:56:04;94846.94;;;5.91;64.00
67434;BME280;54305;47.950;6.572;2023-01-28T12:58:35;94840.72;;;5.93;62.30
67434;BME280;54305;47.950;6.572;2023-01-28T13:01:04;94828.53;;;8.37;56.05
67434;BME280;54305;47.950;6.572;2023-01-28T13:09:01;94810.34;;;12.01;46.38
67434;BME280;54305;47.950;6.572;2023-01-28T13:11:32;94815.56;;;12.01;45.65
67434;BME280;54305;47.950;6.572;2023-01-28T13:13:58;94816.84;;;12.78;43.32
67434;BME280;54305;47.950;6.572;2023-01-28T13:16:23;94822.06;;;11.63;43.95
67434;BME280;54305;47.950;6.572;2023-01-28T13:18:48;94822.31;;;10.14;48.09
67434;BME280;54305;47.950;6.572;2023-01-28T13:23:43;94831.91;;;10.13;49.51
67434;BME280;54305;47.950;6.572;2023-01-28T13:28:43;94836.09;;;6.71;57.23
67434;BME280;54305;47.950;6.572;2023-01-28T13:31:12;94845.22;;;5.47;62.88
67434;BME280;54305;47.950;6.572;2023-01-28T13:33:42;94849.47;;;4.59;65.02
67434;BME280;54305;47.950;6.572;2023-01-28T13:38:33;94861.50;;;3.41;71.32
67434;BME280;54305;47.950;6.572;2023-01-28T13:40:59;94857.66;;;2.98;73.02
67434;BME280;54305;47.950;6.572;2023-01-28T13:46:00;94861.97;;;2.85;76.39
67434;BME280;54305;47.950;6.572;2023-01-28T13:50:51;94855.38;;;2.81;76.72
67434;BME280;54305;47.950;6.572;2023-01-28T13:53:19;94855.56;;;2.78;75.32
67434;BME280;54305;47.950;6.572;2023-01-28T13:55:45;94864.03;;;3.05;75.64
67434;BME280;54305;47.950;6.572;2023-01-28T13:58:23;94856.38;;;3.16;74.28
67434;BME280;54305;47.950;6.572;2023-01-28T14:01:00;94860.31;;;3.09;74.88
67434;BME280;54305;47.950;6.572;2023-01-28T14:14:31;94882.13;;;2.91;76.80
67434;BME280;54305;47.950;6.572;2023-01-28T14:19:16;94889.91;;;2.52;78.25
67434;BME280;54305;47.950;6.572;2023-01-28T14:21:43;94892.34;;;2.41;78.47
67434;BME280;54305;47.950;6.572;2023-01-28T14:24:15;94894.41;;;2.36;79.80
67434;BME280;54305;47.950;6.572;2023-01-28T14:29:26;94885.75;;;2.37;81.79
67434;BME280;54305;47.950;6.572;2023-01-28T14:31:56;94880.13;;;2.57;80.47
67434;BME280;54305;47.950;6.572;2023-01-28T14:34:30;94881.66;;;2.47;80.33
67434;BME280;54305;47.950;6.572;2023-01-28T14:36:57;94895.38;;;2.21;80.97
67434;BME280;54305;47.950;6.572;2023-01-28T14:39:25;94899.88;;;2.17;81.41
67434;BME280;54305;47.950;6.572;2023-01-28T14:41:51;94902.59;;;2.02;82.06
67434;BME280;54305;47.950;6.572;2023-01-28T14:44:37;94900.03;;;2.02;82.85
67434;BME280;54305;47.950;6.572;2023-01-28T15:00:27;94930.59;;;1.24;87.52